Time;durP1;ratioP1;P1;durP2;ratioP2;P2;SDS_P1;SDS_P2;PMS_P1;PMS_P2;Temp;Humidity;BMP_temperature;BMP_pressure;BME280_temperature;BME280_humidity;BME280_pressure;Samples;Min_cycle;Max_cycle;Signal;HPM_P1;HPM_P2
2020/12/04 00:02:08;;;;;;;18.98;9.48;;;1.50;85.50;;;;;;5050070;28;20071;-65
2020/12/04 00:04:34;;;;;;;13.90;8.27;;;1.50;85.70;;;;;;5049802;28;20123;-65
2020/12/04 00:07:01;;;;;;;14.88;8.23;;;1.40;85.40;;;;;;5050167;28;20791;-65
2020/12/04 00:09:26;;;;;;;15.50;9.10;;;1.40;85.80;;;;;;5050449;28;20028;-64
2020/12/04 00:11:52;;;;;;;15.75;9.40;;;1.50;85.50;;;;;;5067357;28;20029;-65
2020/12/04 00:14:18;;;;;;;15.95;8.77;;;1.50;85.50;;;;;;5050794;28;20045;-64
2020/12/04 00:16:44;;;;;;;16.20;8.98;;;1.40;85.90;;;;;;5051520;28;20489;-65
2020/12/04 00:19:10;;;;;;;16.27;9.20;;;1.40;85.80;;;;;;5049840;28;20136;-66
2020/12/04 00:21:36;;;;;;;14.95;8.05;;;1.40;85.80;;;;;;5051553;28;20172;-66
2020/12/04 00:24:02;;;;;;;13.65;7.97;;;1.40;85.90;;;;;;5050372;28;20036;-65
2020/12/04 00:26:28;;;;;;;14.35;8.25;;;1.40;86.10;;;;;;5048561;28;20634;-64
2020/12/04 00:28:54;;;;;;;14.27;7.82;;;1.40;86.00;;;;;;5051743;28;20054;-65
2020/12/04 00:31:19;;;;;;;14.52;8.15;;;1.40;85.80;;;;;;5050016;28;20032;-64
2020/12/04 00:33:45;;;;;;;14.32;7.72;;;1.50;85.50;;;;;;5050503;28;20021;-66
2020/12/04 00:36:11;;;;;;;17.27;8.25;;;1.50;85.50;;;;;;5049020;28;20136;-66
2020/12/04 00:38:37;;;;;;;15.85;8.48;;;1.50;85.40;;;;;;5051019;28;20024;-65
2020/12/04 00:41:03;;;;;;;12.35;7.78;;;1.50;85.30;;;;;;5050448;28;20031;-65
2020/12/04 00:43:29;;;;;;;14.40;7.78;;;1.40;85.00;;;;;;5051165;28;20063;-65
2020/12/04 00:45:54;;;;;;;12.70;7.45;;;1.40;85.20;;;;;;5048680;28;20041;-66
2020/12/04 00:48:20;;;;;;;14.18;7.65;;;1.40;85.00;;;;;;5045385;28;20021;-64
2020/12/04 00:50:45;;;;;;;13.18;7.38;;;1.40;85.20;;;;;;5057069;28;20027;-65
2020/12/04 00:53:11;;;;;;;15.93;8.32;;;1.30;85.10;;;;;;5057964;28;20058;-64
2020/12/04 00:55:37;;;;;;;14.77;8.38;;;1.30;85.30;;;;;;5051024;28;20029;-65
2020/12/04 00:58:04;;;;;;;14.65;7.85;;;1.20;85.20;;;;;;5054197;28;20025;-65
2020/12/04 01:00:30;;;;;;;14.13;8.00;;;1.10;85.40;;;;;;5054351;28;20114;-66
2020/12/04 01:02:55;;;;;;;17.23;8.63;;;1.10;85.80;;;;;;5048747;28;20044;-65
2020/12/04 01:05:21;;;;;;;13.30;8.10;;;1.10;85.60;;;;;;5055162;28;20044;-65
2020/12/04 01:07:47;;;;;;;15.95;8.52;;;1.00;86.10;;;;;;5049010;28;20405;-65
2020/12/04 01:10:12;;;;;;;17.77;9.55;;;0.90;86.70;;;;;;5049665;28;20470;-65
2020/12/04 01:12:42;;;;;;;15.57;8.90;;;0.80;87.10;;;;;;5050032;28;20029;-66
2020/12/04 01:15:08;;;;;;;17.73;9.38;;;0.80;87.30;;;;;;5053095;28;20511;-65
2020/12/04 01:17:33;;;;;;;16.98;9.32;;;0.70;87.50;;;;;;5064421;28;20028;-66
2020/12/04 01:19:59;;;;;;;18.20;10.35;;;0.70;87.60;;;;;;5073441;28;20063;-66
2020/12/04 01:22:24;;;;;;;18.20;9.98;;;0.60;87.70;;;;;;5055117;28;20491;-65
2020/12/04 01:24:50;;;;;;;16.67;9.45;;;0.60;87.50;;;;;;5059248;28;20047;-65
2020/12/04 01:27:16;;;;;;;18.20;10.00;;;0.60;87.50;;;;;;5046459;28;20025;-65
2020/12/04 01:29:41;;;;;;;17.50;10.30;;;0.50;87.60;;;;;;5046330;28;20077;-65
2020/12/04 01:32:07;;;;;;;17.80;9.80;;;0.50;87.50;;;;;;5051868;28;20511;-65
2020/12/04 01:34:33;;;;;;;17.55;10.73;;;0.50;87.70;;;;;;5047333;28;20460;-65
2020/12/04 01:36:58;;;;;;;18.00;9.70;;;0.50;87.50;;;;;;5045462;28;20052;-65
2020/12/04 01:39:24;;;;;;;22.13;11.35;;;0.50;87.40;;;;;;5044435;28;20017;-65
2020/12/04 01:41:49;;;;;;;17.38;10.55;;;0.50;87.60;;;;;;5057364;28;20051;-65
2020/12/04 01:44:15;;;;;;;17.98;10.63;;;0.50;87.40;;;;;;5061980;28;20035;-65
2020/12/04 01:46:41;;;;;;;17.42;9.32;;;0.40;87.50;;;;;;5062547;28;20029;-66
2020/12/04 01:49:06;;;;;;;19.63;11.07;;;0.40;87.40;;;;;;5054456;28;20222;-65
2020/12/04 01:51:32;;;;;;;18.88;11.45;;;0.40;87.20;;;;;;5060649;28;20025;-64
2020/12/04 01:53:58;;;;;;;20.27;11.63;;;0.40;87.10;;;;;;5050474;28;20040;-64
2020/12/04 01:56:24;;;;;;;21.70;11.60;;;0.30;87.60;;;;;;5061638;28;20028;-66
2020/12/04 01:58:49;;;;;;;22.08;12.05;;;0.20;87.80;;;;;;5046834;28;20057;-66
2020/12/04 02:01:17;;;;;;;21.13;11.23;;;0.20;87.70;;;;;;5046039;28;20032;-65
2020/12/04 02:03:43;;;;;;;17.20;10.05;;;0.20;87.60;;;;;;5047504;28;20029;-65
2020/12/04 02:06:35;;;;;;;21.15;10.57;;;0.20;87.60;;;;;;5050077;28;20047;-65
2020/12/04 02:09:07;;;;;;;18.73;11.77;;;0.10;87.90;;;;;;5066032;28;20624;-65
2020/12/04 02:11:35;;;;;;;18.67;10.85;;;0.10;87.90;;;;;;5060594;28;20430;-65
2020/12/04 02:37:18;;;;;;;25.65;13.45;;;0.00;88.10;;;;;;5950591;22;20142;-67
2020/12/04 02:39:44;;;;;;;24.50;13.43;;;0.00;88.10;;;;;;5066692;28;20058;-67
2020/12/04 02:42:09;;;;;;;24.25;13.93;;;0.00;87.80;;;;;;5066825;28;20016;-66
2020/12/04 02:44:35;;;;;;;27.83;13.63;;;0.00;88.10;;;;;;5056509;28;20495;-67
2020/12/04 02:47:01;;;;;;;28.10;14.32;;;0.00;87.70;;;;;;5074623;28;20029;-67
2020/12/04 02:49:26;;;;;;;23.42;13.90;;;0.00;87.60;;;;;;5069868;28;20532;-67
2020/12/04 02:57:02;;;;;;;26.40;14.73;;;0.00;88.10;;;;;;5525406;22;20045;-67
2020/12/04 02:59:28;;;;;;;25.25;15.63;;;0.00;87.50;;;;;;5087075;28;20032;-67
2020/12/04 03:01:54;;;;;;;23.13;12.27;;;0.00;87.50;;;;;;5085907;28;20039;-66
2020/12/04 03:04:19;;;;;;;27.65;14.18;;;0.00;87.60;;;;;;5106294;28;20050;-67
2020/12/04 03:06:45;;;;;;;27.40;15.07;;;0.00;87.40;;;;;;5085974;28;20024;-67
2020/12/04 03:09:10;;;;;;;26.52;15.05;;;0.00;87.40;;;;;;5104628;28;20057;-66
2020/12/04 03:11:36;;;;;;;27.23;14.75;;;0.00;87.80;;;;;;5088729;28;20028;-66
2020/12/04 03:14:01;;;;;;;28.65;15.07;;;0.00;87.40;;;;;;5086028;28;20456;-66
2020/12/04 03:16:27;;;;;;;25.80;14.15;;;0.00;87.40;;;;;;5079612;28;20085;-66
2020/12/04 03:18:52;;;;;;;28.35;14.88;;;0.00;87.30;;;;;;5086319;28;20047;-67
2020/12/04 03:21:18;;;;;;;28.15;15.90;;;0.00;87.20;;;;;;5087984;28;20561;-67
2020/12/04 03:23:43;;;;;;;33.63;16.13;;;0.00;87.50;;;;;;5088600;28;20036;-66
2020/12/04 03:26:09;;;;;;;29.35;15.50;;;-3276.70;87.30;;;;;;5084938;28;20491;-66
2020/12/04 03:28:35;;;;;;;27.25;14.88;;;-3276.70;87.70;;;;;;5085961;28;20330;-67
2020/12/04 03:31:00;;;;;;;28.92;16.00;;;0.00;87.60;;;;;;5087576;28;20024;-67
2020/12/04 03:33:26;;;;;;;29.45;15.98;;;0.00;87.50;;;;;;5086945;28;20040;-66
2020/12/04 03:35:51;;;;;;;27.27;15.05;;;0.00;87.20;;;;;;5086368;28;20477;-67
2020/12/04 03:38:17;;;;;;;28.40;15.95;;;0.00;87.40;;;;;;5081744;28;20491;-66
2020/12/04 03:40:44;;;;;;;26.92;14.25;;;0.00;87.30;;;;;;5084601;28;20369;-67
2020/12/04 03:43:10;;;;;;;28.38;15.25;;;0.00;87.20;;;;;;5083932;28;20035;-67
2020/12/04 03:45:36;;;;;;;26.52;15.80;;;0.00;87.20;;;;;;5087902;28;20016;-67
2020/12/04 03:48:02;;;;;;;26.48;15.35;;;0.00;87.20;;;;;;5086104;28;20046;-67
2020/12/04 03:50:28;;;;;;;32.13;17.10;;;0.00;87.30;;;;;;5077365;28;20377;-67
2020/12/04 03:52:53;;;;;;;30.15;15.93;;;0.00;87.50;;;;;;5086510;28;20084;-66
2020/12/04 03:55:19;;;;;;;28.90;16.75;;;0.00;87.10;;;;;;5093107;28;20502;-65
2020/12/04 03:57:44;;;;;;;29.77;16.45;;;0.00;87.60;;;;;;5086845;28;20177;-67
2020/12/04 04:00:10;;;;;;;30.58;15.90;;;0.00;87.40;;;;;;5088015;28;20023;-67
2020/12/04 04:02:36;;;;;;;31.38;15.48;;;0.00;87.40;;;;;;5080825;28;20383;-67
2020/12/04 04:05:02;;;;;;;28.95;15.70;;;0.00;87.40;;;;;;5070982;28;20016;-67
2020/12/04 04:07:27;;;;;;;27.45;13.45;;;0.00;87.30;;;;;;5083403;28;20471;-66
2020/12/04 04:09:53;;;;;;;26.75;15.07;;;0.00;87.00;;;;;;5088247;28;20440;-66
2020/12/04 04:12:18;;;;;;;27.70;15.20;;;0.00;87.20;;;;;;5088499;28;20136;-66
2020/12/04 04:14:44;;;;;;;31.05;16.40;;;0.00;87.50;;;;;;5085716;28;20024;-67
2020/12/04 04:17:09;;;;;;;28.30;15.27;;;0.00;87.90;;;;;;5085257;28;20032;-66
2020/12/04 04:19:35;;;;;;;26.65;14.18;;;0.00;87.50;;;;;;5087566;28;20031;-67
2020/12/04 04:22:00;;;;;;;28.65;15.45;;;0.00;87.30;;;;;;5075408;28;20028;-66
2020/12/04 04:24:26;;;;;;;31.85;17.00;;;0.00;88.00;;;;;;5086545;28;20024;-66
2020/12/04 04:26:52;;;;;;;27.02;14.45;;;0.00;88.20;;;;;;5102696;28;20019;-67
2020/12/04 04:29:17;;;;;;;35.22;16.77;;;0.00;87.70;;;;;;5085627;28;20070;-67
2020/12/04 04:31:43;;;;;;;29.95;15.95;;;0.00;87.80;;;;;;5100545;28;20437;-67
2020/12/04 04:34:09;;;;;;;29.95;16.52;;;0.00;87.60;;;;;;5086416;28;20468;-66
2020/12/04 04:36:35;;;;;;;23.98;14.05;;;0.00;87.80;;;;;;5085161;28;20141;-66
2020/12/04 04:39:01;;;;;;;26.70;15.07;;;0.00;87.80;;;;;;5084065;28;20039;-66
2020/12/04 04:41:26;;;;;;;27.58;14.02;;;0.00;88.10;;;;;;5102171;28;20024;-66
2020/12/04 04:43:53;;;;;;;30.70;15.85;;;0.00;88.20;;;;;;5085498;28;20039;-67
2020/12/04 04:46:31;;;;;;;25.58;14.90;;;0.00;88.40;;;;;;5083332;28;20349;-67
2020/12/04 04:49:00;;;;;;;24.77;14.77;;;0.00;88.50;;;;;;5082951;28;20020;-67
2020/12/04 04:51:26;;;;;;;28.17;14.52;;;0.00;88.60;;;;;;5085932;28;20215;-66
2020/12/04 04:53:57;;;;;;;29.52;16.60;;;0.00;89.30;;;;;;5076112;28;20120;-66
2020/12/04 04:56:24;;;;;;;31.65;16.50;;;0.00;89.60;;;;;;5096206;28;20088;-67
2020/12/04 04:58:50;;;;;;;31.80;17.10;;;0.00;89.90;;;;;;5086774;28;20043;-66
2020/12/04 05:01:16;;;;;;;29.77;16.58;;;0.00;90.50;;;;;;5099195;28;20023;-66
2020/12/04 05:03:54;;;;;;;27.77;15.80;;;0.00;90.10;;;;;;5085638;28;20028;-67
2020/12/04 05:06:31;;;;;;;28.08;16.75;;;0.00;90.10;;;;;;5083675;28;20138;-67
2020/12/04 05:08:57;;;;;;;32.13;16.77;;;0.00;90.40;;;;;;5085098;28;20027;-66
2020/12/04 05:11:23;;;;;;;30.38;16.13;;;-3276.70;90.60;;;;;;5094708;28;20027;-66
2020/12/04 05:13:48;;;;;;;30.15;15.82;;;0.00;90.60;;;;;;5082457;28;20035;-66
2020/12/04 05:16:29;;;;;;;30.92;16.60;;;0.00;90.60;;;;;;5083838;28;20074;-66
2020/12/04 05:18:55;;;;;;;30.08;15.73;;;0.00;90.50;;;;;;5079397;28;20435;-67
2020/12/04 05:21:27;;;;;;;28.60;16.58;;;0.00;90.80;;;;;;5091690;28;20228;-66
2020/12/04 05:23:57;;;;;;;28.98;16.10;;;0.00;91.00;;;;;;5085329;28;20084;-67
2020/12/04 05:26:30;;;;;;;30.25;17.48;;;0.00;91.10;;;;;;5086044;28;20054;-67
2020/12/04 05:28:56;;;;;;;28.08;15.88;;;0.00;91.10;;;;;;5082852;28;20047;-66
2020/12/04 05:31:28;;;;;;;28.83;16.70;;;0.00;91.10;;;;;;5087334;28;20488;-66
2020/12/04 05:33:53;;;;;;;31.13;17.15;;;0.00;91.00;;;;;;5084528;28;20039;-66
2020/12/04 05:36:30;;;;;;;28.33;16.27;;;0.00;91.00;;;;;;5099745;28;20460;-67
2020/12/04 05:38:57;;;;;;;31.10;15.68;;;0.00;91.00;;;;;;5087877;28;20024;-66
2020/12/04 05:41:24;;;;;;;31.17;15.68;;;0.00;91.10;;;;;;5079203;28;20028;-67
2020/12/04 05:43:52;;;;;;;32.63;16.65;;;0.00;91.50;;;;;;5079868;28;20128;-67
2020/12/04 05:46:25;;;;;;;28.40;16.20;;;0.00;91.50;;;;;;5084911;28;20508;-67
2020/12/04 05:48:56;;;;;;;29.30;17.30;;;0.00;91.50;;;;;;5082736;28;20035;-66
2020/12/04 05:51:28;;;;;;;26.42;15.90;;;0.00;91.10;;;;;;5101414;28;20028;-67
2020/12/04 05:53:55;;;;;;;28.45;17.45;;;0.00;91.50;;;;;;5090007;28;20036;-67
2020/12/04 05:56:21;;;;;;;36.28;17.65;;;0.00;91.40;;;;;;5083289;28;20028;-66
2020/12/04 05:58:48;;;;;;;29.60;16.25;;;0.00;91.80;;;;;;5078295;28;20406;-66
2020/12/04 06:01:16;;;;;;;30.65;18.23;;;0.00;91.80;;;;;;5084761;28;20115;-66
2020/12/04 06:03:53;;;;;;;33.42;17.80;;;0.00;92.00;;;;;;5097495;28;20019;-66
2020/12/04 06:06:30;;;;;;;33.00;19.45;;;0.00;92.10;;;;;;5082906;28;20028;-67
2020/12/04 06:09:06;;;;;;;36.28;18.92;;;0.00;92.10;;;;;;4960701;28;20035;-66
2020/12/04 06:11:38;;;;;;;31.40;18.27;;;0.00;92.10;;;;;;4959071;28;20042;-65
2020/12/04 06:14:19;;;;;;;27.42;15.23;;;0.00;92.20;;;;;;4960047;28;20616;-66
2020/12/04 06:17:12;;;;;;;34.33;18.25;;;0.00;92.00;;;;;;4960479;28;20123;-66
2020/12/04 06:19:40;;;;;;;35.60;18.88;;;0.00;92.40;;;;;;4962012;28;20047;-66
2020/12/04 06:22:13;;;;;;;33.13;18.33;;;0.00;92.30;;;;;;4958461;28;20329;-66
2020/12/04 06:24:54;;;;;;;21.40;10.48;;;0.00;92.40;;;;;;4959850;28;20065;-66
2020/12/04 06:27:40;;;;;;;35.10;19.40;;;0.00;91.90;;;;;;4973772;28;20598;-66
2020/12/04 06:30:08;;;;;;;39.10;19.90;;;0.00;92.20;;;;;;4959305;28;20035;-65
2020/12/04 06:32:37;;;;;;;30.02;16.10;;;0.00;92.20;;;;;;4959188;28;20084;-67
2020/12/04 06:35:05;;;;;;;36.25;20.80;;;0.10;92.30;;;;;;4961115;28;20037;-66
2020/12/04 06:37:36;;;;;;;38.00;18.98;;;0.10;92.50;;;;;;4951896;28;20027;-67
2020/12/04 06:40:20;;;;;;;;;;;0.10;92.70;;;;;;4948845;28;20031;-66
2020/12/04 06:42:46;;;;;;;32.70;14.82;;;0.10;92.70;;;;;;4961230;28;20392;-66
2020/12/04 06:45:11;;;;;;;34.90;19.95;;;0.10;92.60;;;;;;4966341;28;20034;-65
2020/12/04 06:47:37;;;;;;;36.17;18.05;;;0.10;92.90;;;;;;4965057;28;22682;-67
2020/12/04 06:50:02;;;;;;;39.45;19.98;;;0.10;92.60;;;;;;4966338;28;20030;-66
2020/12/04 06:52:28;;;;;;;38.78;21.05;;;0.10;92.90;;;;;;4963290;28;20050;-66
2020/12/04 06:54:55;;;;;;;36.20;20.08;;;0.10;93.00;;;;;;4964621;28;20606;-66
2020/12/04 06:57:23;;;;;;;37.05;20.48;;;0.10;93.00;;;;;;4965426;28;20031;-66
2020/12/04 06:59:49;;;;;;;39.03;21.80;;;0.10;93.00;;;;;;4965357;28;20460;-66
2020/12/04 07:02:19;;;;;;;42.97;22.52;;;0.10;93.30;;;;;;4964868;28;20106;-66
2020/12/04 07:04:52;;;;;;;36.33;19.95;;;0.10;93.30;;;;;;4963910;28;20027;-66
2020/12/04 07:07:26;;;;;;;43.13;22.08;;;0.10;93.30;;;;;;4959847;28;20345;-67
2020/12/04 07:09:58;;;;;;;42.00;23.25;;;0.10;93.30;;;;;;4960518;28;20027;-66
2020/12/04 07:12:28;;;;;;;43.80;22.58;;;0.10;93.30;;;;;;4962447;28;20046;-66
2020/12/04 07:14:56;;;;;;;44.20;23.55;;;0.20;93.50;;;;;;4961364;28;20031;-66
2020/12/04 07:17:26;;;;;;;44.53;22.67;;;0.20;93.40;;;;;;4958655;28;20447;-66
2020/12/04 07:19:53;;;;;;;38.37;19.73;;;0.20;93.70;;;;;;4965181;28;20615;-66
2020/12/04 07:22:20;;;;;;;43.53;21.75;;;0.20;93.60;;;;;;4961733;28;20114;-67
2020/12/04 07:24:47;;;;;;;46.28;24.05;;;0.20;93.70;;;;;;4954423;28;20384;-66
2020/12/04 07:27:18;;;;;;;42.47;22.33;;;0.20;93.90;;;;;;4964916;28;20049;-66
2020/12/04 07:29:44;;;;;;;38.67;20.52;;;0.30;93.90;;;;;;4965832;28;20379;-66
2020/12/04 07:32:10;;;;;;;43.50;22.15;;;0.30;94.00;;;;;;4963458;28;20027;-67
2020/12/04 07:34:37;;;;;;;44.78;22.42;;;0.40;94.00;;;;;;4963802;28;20085;-67
2020/12/04 07:37:07;;;;;;;50.75;23.83;;;0.30;94.00;;;;;;4957443;28;20099;-66
2020/12/04 07:39:40;;;;;;;44.00;22.27;;;0.40;93.90;;;;;;4965284;28;20093;-67
2020/12/04 07:42:08;;;;;;;39.60;22.35;;;0.40;94.00;;;;;;4964622;28;20076;-67
2020/12/04 07:44:38;;;;;;;40.40;20.67;;;0.40;94.30;;;;;;4965210;28;20027;-67
2020/12/04 07:47:08;;;;;;;44.22;22.33;;;0.40;93.80;;;;;;4961383;28;20041;-67
2020/12/04 07:49:36;;;;;;;43.22;21.50;;;0.40;93.90;;;;;;4959988;28;20105;-67
2020/12/04 07:52:13;;;;;;;40.88;22.17;;;0.50;94.00;;;;;;4963728;28;20018;-66
2020/12/04 07:54:39;;;;;;;44.72;23.23;;;0.50;94.20;;;;;;4959647;28;20019;-67
2020/12/04 07:57:05;;;;;;;43.40;21.98;;;0.50;94.20;;;;;;4961850;28;20375;-66
2020/12/04 07:59:33;;;;;;;37.67;20.63;;;0.50;94.10;;;;;;4945949;28;20032;-67
2020/12/04 08:02:00;;;;;;;41.38;21.67;;;0.60;94.00;;;;;;4960572;28;20383;-66
2020/12/04 08:04:27;;;;;;;39.58;21.02;;;0.60;93.90;;;;;;4965658;28;20026;-66
2020/12/04 08:07:08;;;;;;;40.45;19.60;;;0.60;93.90;;;;;;4964099;28;20096;-66
2020/12/04 08:09:40;;;;;;;42.97;20.70;;;0.70;93.80;;;;;;4963929;28;20545;-67
2020/12/04 08:12:09;;;;;;;;;;;0.70;94.00;;;;;;4963033;28;20066;-66
2020/12/04 08:14:35;;;;;;;40.42;21.55;;;0.80;93.80;;;;;;4965426;28;19906;-67
2020/12/04 08:17:01;;;;;;;45.40;20.58;;;0.80;93.80;;;;;;4963818;28;20035;-66
2020/12/04 08:19:31;;;;;;;36.28;20.17;;;0.80;93.80;;;;;;4965285;28;20045;-66
2020/12/04 08:21:58;;;;;;;37.53;20.83;;;0.80;93.60;;;;;;4964178;28;20130;-66
2020/12/04 08:24:34;;;;;;;39.63;20.95;;;0.80;93.70;;;;;;4948064;28;20562;-67
2020/12/04 08:27:05;;;;;;;36.28;19.60;;;0.90;93.50;;;;;;4951064;28;20046;-67
2020/12/04 08:29:31;;;;;;;38.17;20.70;;;0.90;93.30;;;;;;4948216;28;20031;-67
2020/12/04 08:32:19;;;;;;;41.90;19.80;;;1.00;93.30;;;;;;4955015;28;20485;-66
2020/12/04 08:34:45;;;;;;;36.20;19.35;;;1.00;93.30;;;;;;4956604;28;20043;-66
2020/12/04 08:37:12;;;;;;;34.90;19.50;;;1.00;93.50;;;;;;4954473;28;20122;-66
2020/12/04 08:39:40;;;;;;;40.15;20.42;;;1.00;93.60;;;;;;4959382;28;20109;-66
2020/12/04 08:42:18;;;;;;;39.70;21.23;;;1.00;93.50;;;;;;4959108;28;20027;-67
2020/12/04 08:44:54;;;;;;;39.50;20.48;;;1.10;93.40;;;;;;4957659;28;20108;-67
2020/12/04 08:47:27;;;;;;;34.13;18.48;;;1.10;93.40;;;;;;4957732;28;20636;-66
2020/12/04 08:49:54;;;;;;;39.42;20.08;;;1.10;92.80;;;;;;4957128;28;20100;-64
2020/12/04 08:52:42;;;;;;;32.70;17.85;;;1.10;93.10;;;;;;4958068;28;20027;-68
2020/12/04 08:55:13;;;;;;;33.80;17.90;;;1.20;92.60;;;;;;4958107;28;20525;-67
2020/12/04 08:57:40;;;;;;;32.97;18.00;;;1.30;92.60;;;;;;5005968;22;20051;-65
2020/12/04 09:00:08;;;;;;;34.35;17.45;;;1.30;92.60;;;;;;4966423;28;20216;-65
2020/12/04 09:02:37;;;;;;;32.45;18.30;;;1.40;92.30;;;;;;4961843;28;20141;-65
2020/12/04 09:05:08;;;;;;;39.88;19.40;;;1.40;92.40;;;;;;4965207;28;20061;-65
2020/12/04 09:07:34;;;;;;;;;;;1.50;92.20;;;;;;4964431;28;20121;-65
2020/12/04 09:09:59;;;;;;;34.60;16.85;;;1.50;92.10;;;;;;4965036;28;20037;-65
2020/12/04 09:12:25;;;;;;;33.80;16.90;;;1.60;91.40;;;;;;4971592;28;20027;-66
2020/12/04 09:14:51;;;;;;;29.73;16.55;;;1.70;91.60;;;;;;4964063;28;20065;-63
2020/12/04 09:17:17;;;;;;;34.20;16.98;;;1.70;91.30;;;;;;4997107;28;20251;-65
2020/12/04 09:19:44;;;;;;;30.73;16.85;;;1.70;91.20;;;;;;4981311;28;20487;-65
2020/12/04 09:22:11;;;;;;;31.52;17.05;;;1.70;91.30;;;;;;4993113;28;20202;-66
2020/12/04 09:24:37;;;;;;;26.30;15.35;;;1.70;91.10;;;;;;4970813;28;20054;-66
2020/12/04 09:27:03;;;;;;;31.48;17.23;;;1.70;91.10;;;;;;4963615;28;20058;-66
2020/12/04 09:29:28;;;;;;;30.33;16.48;;;1.70;91.00;;;;;;4956423;28;20027;-66
2020/12/04 09:31:54;;;;;;;27.73;15.88;;;1.80;91.40;;;;;;4962909;28;20513;-66
2020/12/04 09:34:19;;;;;;;30.60;16.60;;;1.80;91.20;;;;;;4962895;28;20050;-66
2020/12/04 09:36:49;;;;;;;32.00;16.30;;;1.80;91.10;;;;;;4975667;28;20049;-66
2020/12/04 09:39:14;;;;;;;28.77;15.20;;;1.80;91.00;;;;;;4986709;28;20023;-66
2020/12/04 09:41:43;;;;;;;27.95;15.45;;;1.90;91.20;;;;;;4972742;28;20037;-67
2020/12/04 09:44:09;;;;;;;30.00;14.95;;;1.90;90.90;;;;;;5069769;28;20109;-66
2020/12/04 09:46:35;;;;;;;31.40;15.30;;;1.90;90.90;;;;;;5032536;28;20069;-65
2020/12/04 09:49:00;;;;;;;28.70;15.95;;;1.90;91.00;;;;;;4976127;28;20047;-66
2020/12/04 09:51:26;;;;;;;27.80;15.82;;;2.00;91.00;;;;;;4967805;28;20588;-66
2020/12/04 09:53:52;;;;;;;27.35;15.05;;;2.00;90.90;;;;;;4967452;28;20035;-66
2020/12/04 09:56:18;;;;;;;25.92;14.10;;;2.00;90.70;;;;;;4967013;28;20042;-65
2020/12/04 09:58:44;;;;;;;27.20;14.38;;;2.10;90.40;;;;;;5026918;28;20140;-66
2020/12/04 10:01:12;;;;;;;27.65;14.48;;;2.10;90.30;;;;;;4967746;28;20019;-65
2020/12/04 10:03:38;;;;;;;25.00;14.45;;;2.10;90.20;;;;;;4966814;28;20031;-66
2020/12/04 10:06:03;;;;;;;26.95;14.55;;;2.10;90.10;;;;;;4966503;28;20049;-66
2020/12/04 10:08:29;;;;;;;30.42;14.90;;;2.20;90.20;;;;;;4965209;28;20035;-65
2020/12/04 10:10:54;;;;;;;29.00;14.30;;;2.20;90.10;;;;;;4960237;28;20100;-66
2020/12/04 10:13:20;;;;;;;28.98;14.75;;;2.30;90.10;;;;;;5032104;28;20373;-66
2020/12/04 10:15:45;;;;;;;28.90;15.20;;;2.30;90.30;;;;;;5068617;28;20028;-66
2020/12/04 10:18:12;;;;;;;25.52;13.75;;;2.30;90.20;;;;;;4995781;28;20201;-66
2020/12/04 10:20:38;;;;;;;26.38;13.75;;;2.30;90.00;;;;;;4966581;28;20038;-66
2020/12/04 10:23:04;;;;;;;26.75;13.77;;;2.40;90.10;;;;;;4962411;28;20043;-66
2020/12/04 10:25:29;;;;;;;21.73;12.75;;;2.40;90.30;;;;;;4964516;28;20448;-66
2020/12/04 10:27:55;;;;;;;26.95;14.30;;;2.40;90.10;;;;;;4966660;28;20118;-66
2020/12/04 10:30:20;;;;;;;26.33;13.63;;;2.40;90.00;;;;;;4960422;28;20227;-66
2020/12/04 10:32:46;;;;;;;27.48;14.90;;;2.40;89.90;;;;;;4967046;28;20027;-66
2020/12/04 10:35:12;;;;;;;28.58;14.02;;;2.50;90.30;;;;;;4966265;28;20507;-66
2020/12/04 10:37:37;;;;;;;22.83;13.90;;;2.50;90.50;;;;;;5000083;28;20021;-66
2020/12/04 10:40:03;;;;;;;26.73;13.35;;;2.60;90.80;;;;;;5068101;28;20035;-66
2020/12/04 10:42:28;;;;;;;27.05;13.90;;;2.50;90.70;;;;;;5013691;28;20028;-67
2020/12/04 10:44:54;;;;;;;25.33;14.07;;;2.50;91.10;;;;;;5005959;28;20022;-66
2020/12/04 10:47:20;;;;;;;26.40;13.82;;;2.60;90.90;;;;;;4967785;28;20508;-66
2020/12/04 10:49:45;;;;;;;27.02;13.82;;;2.60;91.30;;;;;;4963369;28;20026;-66
2020/12/04 10:52:11;;;;;;;24.90;13.05;;;2.70;91.30;;;;;;4973900;28;20035;-65
2020/12/04 10:54:37;;;;;;;28.67;14.43;;;2.70;91.20;;;;;;4965088;28;20027;-66
2020/12/04 10:57:02;;;;;;;25.67;13.75;;;2.70;91.50;;;;;;4966972;28;20039;-66
2020/12/04 10:59:28;;;;;;;26.58;13.73;;;2.80;91.60;;;;;;4966041;28;20436;-66
2020/12/04 11:02:38;;;;;;;26.77;14.00;;;2.90;91.50;;;;;;4967148;28;20042;-65
2020/12/04 11:07:26;;;;;;;28.63;14.13;;;3.10;91.30;;;;;;5003239;28;20123;-66
2020/12/04 11:09:52;;;;;;;25.83;12.57;;;3.10;91.00;;;;;;4953945;28;20428;-66
2020/12/04 11:12:17;;;;;;;25.08;12.93;;;3.20;90.90;;;;;;4957397;28;20376;-66
2020/12/04 11:14:43;;;;;;;26.42;13.98;;;3.30;91.10;;;;;;4965913;28;20080;-65
2020/12/04 11:17:09;;;;;;;24.52;12.02;;;3.30;90.30;;;;;;4973734;28;20031;-66
2020/12/04 11:19:36;;;;;;;23.42;12.77;;;3.40;90.00;;;;;;4972193;28;20142;-66
2020/12/04 11:22:02;;;;;;;25.58;13.18;;;3.40;89.90;;;;;;4967833;28;20042;-66
2020/12/04 11:24:28;;;;;;;21.92;11.80;;;3.60;90.40;;;;;;4978439;28;20137;-67
2020/12/04 11:26:53;;;;;;;24.30;11.95;;;3.70;89.60;;;;;;4965761;28;20042;-67
2020/12/04 11:29:19;;;;;;;22.95;11.60;;;3.90;89.10;;;;;;4966778;28;20031;-66
2020/12/04 11:31:44;;;;;;;22.92;11.80;;;4.10;89.20;;;;;;4962574;28;20030;-66
2020/12/04 11:34:10;;;;;;;23.95;12.27;;;4.10;88.50;;;;;;5029863;28;20444;-66
2020/12/04 11:36:36;;;;;;;18.30;10.55;;;4.00;88.80;;;;;;4963574;28;20057;-67
2020/12/04 11:39:01;;;;;;;21.67;10.38;;;3.90;88.50;;;;;;4965437;28;20387;-66
2020/12/04 11:41:31;;;;;;;20.40;10.70;;;4.00;88.50;;;;;;4965535;28;20053;-67
2020/12/04 11:43:57;;;;;;;17.83;10.00;;;3.90;87.90;;;;;;4990232;28;20118;-65
2020/12/04 11:46:23;;;;;;;20.55;10.90;;;3.90;87.90;;;;;;4965602;28;20161;-66
2020/12/04 11:48:48;;;;;;;17.17;10.15;;;3.90;88.40;;;;;;4986545;28;20478;-66
2020/12/04 11:51:14;;;;;;;20.38;10.32;;;3.90;88.20;;;;;;4966238;28;20035;-66
2020/12/04 11:53:39;;;;;;;21.83;11.35;;;3.90;88.20;;;;;;4959415;28;20043;-66
2020/12/04 11:56:06;;;;;;;20.08;10.95;;;3.90;87.70;;;;;;4959892;28;20166;-66
2020/12/04 11:58:32;;;;;;;17.27;9.55;;;4.00;87.40;;;;;;4994272;28;20034;-67
2020/12/04 12:00:57;;;;;;;17.52;10.25;;;3.90;87.30;;;;;;4964801;28;20468;-66
2020/12/04 12:03:23;;;;;;;20.15;11.05;;;3.80;87.10;;;;;;4976744;28;20111;-66
2020/12/04 12:05:48;;;;;;;21.15;10.32;;;3.80;87.80;;;;;;4961918;28;20154;-65
2020/12/04 12:08:14;;;;;;;20.75;11.30;;;3.80;87.80;;;;;;4957929;28;20047;-65
2020/12/04 12:10:40;;;;;;;21.60;11.23;;;3.80;87.40;;;;;;4964521;28;20027;-66
2020/12/04 12:13:05;;;;;;;23.05;10.73;;;3.80;87.60;;;;;;4990852;28;20043;-66
2020/12/04 12:15:31;;;;;;;20.60;11.15;;;3.80;87.20;;;;;;4958416;28;20038;-65
2020/12/04 12:17:56;;;;;;;21.08;10.73;;;3.80;87.40;;;;;;4978762;28;20071;-67
2020/12/04 12:20:22;;;;;;;22.25;10.70;;;3.80;87.30;;;;;;4960921;28;20031;-66
2020/12/04 12:22:48;;;;;;;18.33;10.25;;;3.80;87.50;;;;;;4949252;28;20118;-66
2020/12/04 12:25:13;;;;;;;19.65;10.70;;;3.90;87.30;;;;;;4946539;28;20142;-66
2020/12/04 12:27:41;;;;;;;21.80;10.32;;;4.00;86.90;;;;;;4963479;28;20031;-66
2020/12/04 12:30:06;;;;;;;22.98;10.68;;;4.10;86.30;;;;;;4963485;28;20026;-66
2020/12/04 12:32:32;;;;;;;19.95;10.32;;;4.20;85.60;;;;;;4973447;28;22632;-66
2020/12/04 12:37:26;;;;;;;20.30;10.48;;;4.20;85.50;;;;;;4963931;28;20118;-66
2020/12/04 12:39:52;;;;;;;18.70;9.77;;;4.10;85.70;;;;;;4964845;28;20121;-66
2020/12/04 12:42:18;;;;;;;20.85;10.18;;;4.10;85.30;;;;;;4964362;28;20470;-65
2020/12/04 12:44:45;;;;;;;23.60;10.82;;;4.10;85.70;;;;;;4964938;28;20141;-67
2020/12/04 12:47:11;;;;;;;21.38;10.77;;;4.00;86.00;;;;;;4964385;28;20573;-66
2020/12/04 12:49:40;;;;;;;20.35;11.07;;;3.80;86.10;;;;;;5056174;28;20291;-65
2020/12/04 12:52:06;;;;;;;17.80;9.93;;;3.70;86.40;;;;;;5066203;28;20056;-67
2020/12/04 12:54:32;;;;;;;19.08;10.73;;;3.60;86.70;;;;;;4968776;28;20084;-66
2020/12/04 12:56:58;;;;;;;20.08;10.93;;;3.60;86.70;;;;;;4948121;28;20065;-66
2020/12/04 12:59:24;;;;;;;17.52;10.40;;;3.50;86.90;;;;;;4962267;28;20039;-66
2020/12/04 13:01:51;;;;;;;19.08;10.73;;;3.50;86.60;;;;;;4963482;28;20110;-66
2020/12/04 13:04:17;;;;;;;18.85;10.20;;;3.40;87.00;;;;;;4960470;28;20073;-65
2020/12/04 13:06:43;;;;;;;22.27;11.07;;;3.40;87.20;;;;;;4956678;28;20261;-66
2020/12/04 13:09:09;;;;;;;19.13;10.30;;;3.40;87.30;;;;;;4963581;28;20109;-66
2020/12/04 13:11:35;;;;;;;18.25;10.52;;;3.40;87.20;;;;;;4960700;28;20106;-66
2020/12/04 13:14:01;;;;;;;20.45;10.70;;;3.50;87.20;;;;;;4948370;28;20023;-66